WetterOnline ( https://www.wetteronline.at )

Wetter aktuell Norderney

Aktuelles Wetter: Norderney (16m)

6-stündlich | Neueste Meldungen
Ortszeit Temperatur Wetter
Do, 02.07. 20:00 16.6° C bedeckt
Do, 02.07. 14:00 16.7° C bewölkt
Do, 02.07. 8:00 16.2° C bewölkt
Do, 02.07. 2:00 15.9° C bewölkt
Mi, 01.07. 20:00 16.8° C bedeckt
Mi, 01.07. 14:00 19.6° C bewölkt
Mi, 01.07. 8:00 15.2° C wolkig
Mi, 01.07. 2:00 15.1° C leicht bewölkt
Ortszeit Temperatur Wetter
Do, 02.07. 20:30 15.9° C wolkig
Do, 02.07. 20:20 15.9° C wolkig
Do, 02.07. 20:10 16.3° C wolkig
Do, 02.07. 20:00 16.6° C bedeckt
Do, 02.07. 19:50 16.6° C bedeckt
Do, 02.07. 19:40 17.0° C bewölkt
Do, 02.07. 19:30 18.0° C leicht bewölkt
Do, 02.07. 19:00 17.8° C leicht bewölkt
Ortszeit Relative Feuchte Sichtweite
Do, 02.07. 20:00 84% 17 km
Do, 02.07. 14:00 81% 30 km
Do, 02.07. 8:00 75% 30 km
Do, 02.07. 2:00 83% 30 km
Mi, 01.07. 20:00 87% 20 km
Mi, 01.07. 14:00 80% 26 km
Mi, 01.07. 8:00 95% 14 km
Mi, 01.07. 2:00 88% 45 km
Ortszeit Relative Feuchte Sichtweite
Do, 02.07. 20:30 86% 16 km
Do, 02.07. 20:20 86% -
Do, 02.07. 20:10 84% -
Do, 02.07. 20:00 84% 17 km
Do, 02.07. 19:50 84% -
Do, 02.07. 19:40 81% -
Do, 02.07. 19:30 80% 22 km
Do, 02.07. 19:00 82% 23 km
Ortszeit Niederschlagsmenge Niederschlagsart
Do, 02.07. 20:00 2 l/m2 in 12 Std. Regen
Do, 02.07. 14:00 0.1 l/m2 in 6 Std. Regen
Do, 02.07. 8:00 0.4 l/m2 in 12 Std. -
Do, 02.07. 2:00 0.4 l/m2 in 6 Std. Regen
Mi, 01.07. 20:00 0.0 l/m2 in 12 Std. -
Mi, 01.07. 14:00 0.0 l/m2 in 6 Std. -
Mi, 01.07. 8:00 0.3 l/m2 in 12 Std. -
Mi, 01.07. 2:00 0.3 l/m2 in 6 Std. Regen
Ortszeit Niederschlagsmenge Niederschlagsart
Do, 02.07. 20:30 0.0 l/m2 in 1 Std. -
Do, 02.07. 20:20 keine Meldung -
Do, 02.07. 20:10 keine Meldung -
Do, 02.07. 20:00 0.0 l/m2 in 1 Std. Regen
Do, 02.07. 19:50 keine Meldung -
Do, 02.07. 19:40 keine Meldung -
Do, 02.07. 19:30 0.0 l/m2 in 1 Std. -
Do, 02.07. 19:00 0.0 l/m2 in 1 Std. -
Ortszeit Stärke Spitze Richtung
km/h Bft. km/h Grad Sektor
Do, 02.07. 20:00 24 4 37 340° N
Do, 02.07. 14:00 13 3 17 30° NO
Do, 02.07. 8:00 11 2 25 290° W
Do, 02.07. 2:00 18 3 50 280° W
Mi, 01.07. 20:00 29 5 47 270° W
Mi, 01.07. 14:00 24 4 41 250° W
Mi, 01.07. 8:00 15 3 30 190° S
Mi, 01.07. 2:00 17 3 37 230° SW
Ortszeit Stärke Spitze Richtung
km/h Bft. km/h Grad Sektor
Do, 02.07. 20:30 25 4 29 360° N
Do, 02.07. 20:20 25 4 - 360° N
Do, 02.07. 20:10 24 4 - 350° N
Do, 02.07. 20:00 24 4 37 340° N
Do, 02.07. 19:50 24 4 - 340° N
Do, 02.07. 19:40 20 4 - 310° NW
Do, 02.07. 19:30 22 4 37 270° W
Do, 02.07. 19:00 22 4 37 260° W
Ortszeit Untergrenze Bedeckung Gattung
total tief tief mittel hoch
Do, 02.07. 20:00 6600 m 8/8 8/8 - - -
Do, 02.07. 14:00 1020 m 8/8 7/8 - - -
Do, 02.07. 8:00 1350 m 8/8 4/8 - - -
Do, 02.07. 2:00 450 m 7/8 7/8 - - -
Mi, 01.07. 20:00 330 m 8/8 8/8 - - -
Mi, 01.07. 14:00 750 m 7/8 7/8 - - -
Mi, 01.07. 8:00 90 m 7/8 4/8 - - -
Mi, 01.07. 2:00 510 m 4/8 4/8 - - -
Ortszeit Bedeckungsgrad in Achtel und Wolkenuntergrenze
Do, 02.07. 20:30 1(630m) 7(6000m) 8(6600m)
Do, 02.07. 20:20 1(630m) 7(6000m) 8(6600m)
Do, 02.07. 20:10 2(660m) 6(6000m) 8(6600m)
Do, 02.07. 20:00 8(6600m) 8(7800m) 8(7500m)
Do, 02.07. 19:50 8(6600m) 8(7800m)
Do, 02.07. 19:40 7(6600m) 8(7200m)
Do, 02.07. 19:30 1(360m) 6(6900m)
Do, 02.07. 19:00 4(420m)
Ortszeit Luftdruck NN (hPa) Tendenz (hPa in 3 Std.)
Do, 02.07. 20:00 1010 + 0,6
Do, 02.07. 14:00 1009 + 0,5
Do, 02.07. 8:00 1008 + 1,1
Do, 02.07. 2:00 1007 + 1,0
Mi, 01.07. 20:00 1005 + 1,0
Mi, 01.07. 14:00 1003 - 0,6
Mi, 01.07. 8:00 1004 - 0,2
Mi, 01.07. 2:00 1005 - 0,2
Ortszeit Luftdruck NN (hPa) Tendenz (hPa in 3 Std.)
Do, 02.07. 20:30 1011 + 0,8
Do, 02.07. 20:20 1011 keine Meldung
Do, 02.07. 20:10 1011 keine Meldung
Do, 02.07. 20:00 1010 + 0,6
Do, 02.07. 19:50 1010 keine Meldung
Do, 02.07. 19:40 1010 keine Meldung
Do, 02.07. 19:30 1010 + 0,1
Do, 02.07. 19:00 1010 + 0,2
Ortszeit Schneehöhe (cm)
Do, 02.07. 20:00 -
Do, 02.07. 14:00 -
Do, 02.07. 8:00 -
Do, 02.07. 2:00 -
Mi, 01.07. 20:00 -
Mi, 01.07. 14:00 -
Mi, 01.07. 8:00 -
Mi, 01.07. 2:00 -
Ortszeit Schneehöhe (cm)
Do, 02.07. 20:30 -
Do, 02.07. 20:20 -
Do, 02.07. 20:10 -
Do, 02.07. 20:00 -
Do, 02.07. 19:50 -
Do, 02.07. 19:40 -
Do, 02.07. 19:30 -
Do, 02.07. 19:00 -
Link zu dieser Seite / Seite empfehlen

Das Wetter in ...